createdAt,value
2022-12-07T00:01:26.921Z,8.80
2022-12-07T00:03:58.081Z,8.90
2022-12-07T00:06:24.892Z,8.90
2022-12-07T00:08:51.780Z,8.90
2022-12-07T00:11:21.691Z,8.80
2022-12-07T00:13:52.773Z,8.80
2022-12-07T00:16:21.690Z,8.80
2022-12-07T00:18:48.823Z,8.90
2022-12-07T00:21:22.083Z,8.80
2022-12-07T00:23:50.393Z,8.80
2022-12-07T00:26:21.589Z,8.80
2022-12-07T00:28:50.171Z,8.80
2022-12-07T00:31:18.658Z,8.70
2022-12-07T00:33:48.668Z,8.80
2022-12-07T00:36:21.844Z,8.90
2022-12-07T00:38:53.464Z,8.90
2022-12-07T00:41:22.459Z,9.00
2022-12-07T00:43:50.516Z,9.10
2022-12-07T00:46:18.765Z,9.20
2022-12-07T00:48:46.181Z,9.20
2022-12-07T00:51:15.571Z,9.30
2022-12-07T00:53:42.630Z,9.30
2022-12-07T00:56:18.672Z,9.20
2022-12-07T00:58:50.014Z,9.20
2022-12-07T01:01:17.011Z,9.20
2022-12-07T01:03:43.993Z,9.20
2022-12-07T01:06:16.496Z,9.10
2022-12-07T01:08:43.412Z,9.10
2022-12-07T01:11:14.721Z,9.00
2022-12-07T01:13:42.089Z,8.90
2022-12-07T01:16:11.916Z,8.80
2022-12-07T01:18:39.541Z,8.70
2022-12-07T01:21:07.710Z,8.60
2022-12-07T01:23:36.104Z,8.50
2022-12-07T01:26:11.764Z,8.40
2022-12-07T01:28:39.245Z,8.40
2022-12-07T01:31:12.696Z,8.30
2022-12-07T01:33:40.581Z,8.30
2022-12-07T01:36:16.464Z,8.30
2022-12-07T01:38:44.568Z,8.20
2022-12-07T01:41:11.906Z,8.20
2022-12-07T01:44:17.380Z,8.30
2022-12-07T01:46:50.313Z,8.30
2022-12-07T01:49:36.182Z,8.20
2022-12-07T01:52:15.143Z,8.30
2022-12-07T01:54:43.794Z,8.30
2022-12-07T01:57:11.790Z,8.30
2022-12-07T01:59:40.200Z,8.30
2022-12-07T02:02:15.154Z,8.20
2022-12-07T02:04:42.061Z,8.20
2022-12-07T02:07:09.366Z,8.10
2022-12-07T02:09:36.215Z,8.10
2022-12-07T02:12:03.841Z,8.00
2022-12-07T02:14:30.822Z,8.00
2022-12-07T02:17:15.868Z,8.00
2022-12-07T02:20:24.325Z,7.90
2022-12-07T02:23:37.043Z,7.90
2022-12-07T02:26:12.489Z,7.90
2022-12-07T02:29:01.546Z,8.00
2022-12-07T02:31:30.773Z,8.00
2022-12-07T02:34:25.919Z,8.10
2022-12-07T02:37:06.511Z,8.20
2022-12-07T02:39:47.724Z,8.30
2022-12-07T02:42:24.385Z,8.40
2022-12-07T02:44:52.944Z,8.40
2022-12-07T02:47:22.630Z,8.50
2022-12-07T02:49:51.371Z,8.50
2022-12-07T02:52:18.291Z,8.50
2022-12-07T02:54:45.146Z,8.60
2022-12-07T02:57:27.031Z,8.60
2022-12-07T03:00:03.690Z,8.70
2022-12-07T03:02:44.562Z,8.70
2022-12-07T03:05:41.455Z,8.80
2022-12-07T03:08:35.161Z,8.80
2022-12-07T03:11:11.415Z,8.80
2022-12-07T03:13:47.065Z,8.90
2022-12-07T03:16:22.498Z,8.90
2022-12-07T03:19:16.033Z,8.90
2022-12-07T03:21:50.663Z,8.90
2022-12-07T03:24:22.026Z,8.90
2022-12-07T03:27:03.843Z,8.90
2022-12-07T03:29:37.954Z,8.90
2022-12-07T03:32:11.392Z,8.80
2022-12-07T03:34:50.446Z,8.80
2022-12-07T03:37:24.921Z,8.80
2022-12-07T03:40:18.969Z,8.80
2022-12-07T03:42:46.382Z,8.70
2022-12-07T03:45:14.535Z,8.70
2022-12-07T03:47:59.415Z,8.70
2022-12-07T03:50:45.549Z,8.60
2022-12-07T03:53:15.122Z,8.60
2022-12-07T03:55:44.911Z,8.60
2022-12-07T03:58:18.925Z,8.50
2022-12-07T04:00:46.485Z,8.40
2022-12-07T04:03:13.472Z,8.40
2022-12-07T04:05:41.516Z,8.40
2022-12-07T04:08:08.490Z,8.30
2022-12-07T04:10:35.619Z,8.20
2022-12-07T04:13:02.585Z,8.20
2022-12-07T04:15:29.525Z,8.10
2022-12-07T04:17:56.413Z,8.10
2022-12-07T04:20:23.799Z,8.00
2022-12-07T04:22:50.642Z,8.00
2022-12-07T04:25:17.583Z,8.00
2022-12-07T04:27:44.397Z,8.00
2022-12-07T04:30:13.699Z,7.90
2022-12-07T04:32:40.686Z,7.90
2022-12-07T04:35:08.407Z,7.90
2022-12-07T04:37:35.470Z,7.90
2022-12-07T04:40:02.755Z,7.90
2022-12-07T04:42:29.871Z,7.90
2022-12-07T04:44:56.751Z,8.00
2022-12-07T04:47:23.580Z,8.00
2022-12-07T04:49:50.409Z,8.00
2022-12-07T04:52:17.280Z,8.10
2022-12-07T04:54:44.188Z,8.10
2022-12-07T04:57:11.163Z,8.10
2022-12-07T04:59:43.771Z,8.20
2022-12-07T05:02:12.386Z,8.10
2022-12-07T05:04:39.293Z,8.10
2022-12-07T05:07:06.159Z,8.10
2022-12-07T05:09:32.973Z,8.00
2022-12-07T05:11:59.875Z,8.00
2022-12-07T05:14:26.778Z,8.00
2022-12-07T05:16:54.587Z,8.00
2022-12-07T05:19:21.615Z,8.00
2022-12-07T05:21:48.837Z,8.00
2022-12-07T05:24:17.275Z,8.00
2022-12-07T05:26:44.763Z,8.00
2022-12-07T05:29:15.722Z,8.00
2022-12-07T05:31:43.623Z,8.00
2022-12-07T05:34:11.450Z,8.00
2022-12-07T05:36:38.337Z,8.00
2022-12-07T05:39:05.318Z,8.00
2022-12-07T05:41:50.717Z,8.00
2022-12-07T05:44:17.611Z,8.00
2022-12-07T05:46:44.705Z,7.90
2022-12-07T05:49:11.715Z,7.90
2022-12-07T05:51:38.736Z,7.90
2022-12-07T05:54:05.779Z,7.90
2022-12-07T05:56:32.860Z,8.00
2022-12-07T05:59:17.900Z,7.90
2022-12-07T06:01:44.999Z,7.90
2022-12-07T06:04:12.252Z,7.90
2022-12-07T06:06:39.243Z,8.00
2022-12-07T06:09:06.165Z,8.00
2022-12-07T06:11:51.736Z,8.00
2022-12-07T06:14:18.561Z,8.10
2022-12-07T06:16:45.550Z,8.10
2022-12-07T06:19:12.502Z,8.10
2022-12-07T06:21:39.413Z,8.20
2022-12-07T06:24:06.784Z,8.20
2022-12-07T06:26:33.766Z,8.30
2022-12-07T06:29:00.600Z,8.30
2022-12-07T06:31:27.514Z,8.40
2022-12-07T06:33:59.488Z,8.40
2022-12-07T06:36:27.379Z,8.40
2022-12-07T06:38:55.796Z,8.40
2022-12-07T06:41:22.955Z,8.40
2022-12-07T06:43:55.967Z,8.40
2022-12-07T06:46:23.912Z,8.40
2022-12-07T06:48:51.102Z,8.40
2022-12-07T06:51:18.050Z,8.40
2022-12-07T06:53:44.972Z,8.30
2022-12-07T06:56:11.900Z,8.30
2022-12-07T06:58:38.813Z,8.30
2022-12-07T07:01:19.529Z,8.30
2022-12-07T07:03:48.161Z,8.40
2022-12-07T07:06:16.437Z,8.40
2022-12-07T07:08:43.587Z,8.40
2022-12-07T07:11:11.351Z,8.40
2022-12-07T07:13:38.358Z,8.40
2022-12-07T07:16:05.980Z,8.40
2022-12-07T07:18:33.087Z,8.40
2022-12-07T07:20:59.972Z,8.30
2022-12-07T07:23:27.033Z,8.20
2022-12-07T07:25:54.264Z,8.20
2022-12-07T07:28:21.238Z,8.20
2022-12-07T07:30:48.312Z,8.10
2022-12-07T07:33:15.322Z,8.10
2022-12-07T07:35:42.486Z,8.10
2022-12-07T07:38:09.562Z,8.00
2022-12-07T07:40:36.856Z,8.10
2022-12-07T07:43:03.848Z,8.00
2022-12-07T07:45:30.737Z,8.00
2022-12-07T07:47:57.589Z,8.00
2022-12-07T07:50:24.822Z,7.90
2022-12-07T07:52:53.137Z,7.90
2022-12-07T07:55:20.389Z,7.90
2022-12-07T07:57:54.242Z,7.90
2022-12-07T08:00:22.344Z,7.90
2022-12-07T08:02:49.412Z,7.90
2022-12-07T08:05:16.824Z,7.90
2022-12-07T08:07:44.504Z,7.90
2022-12-07T08:10:13.282Z,7.90
2022-12-07T08:13:01.901Z,7.90
2022-12-07T08:15:30.378Z,7.90
2022-12-07T08:17:57.212Z,7.90
2022-12-07T08:20:24.170Z,7.90
2022-12-07T08:22:51.186Z,7.90
2022-12-07T08:25:18.725Z,7.90
2022-12-07T08:27:45.609Z,7.90
2022-12-07T08:30:12.692Z,7.90
2022-12-07T08:32:40.187Z,8.00
2022-12-07T08:35:09.683Z,8.00
2022-12-07T08:37:37.240Z,8.00
2022-12-07T08:40:06.290Z,8.00
2022-12-07T08:42:38.843Z,8.10
2022-12-07T08:45:11.384Z,8.10
2022-12-07T08:47:42.907Z,8.30
2022-12-07T08:50:12.328Z,8.40
2022-12-07T08:52:40.549Z,8.60
2022-12-07T08:55:08.026Z,8.80
2022-12-07T08:57:36.486Z,9.00
2022-12-07T09:00:05.380Z,9.00
2022-12-07T09:02:33.139Z,9.10
2022-12-07T09:05:00.080Z,9.20
2022-12-07T09:07:27.932Z,9.20
2022-12-07T09:09:54.803Z,9.30
2022-12-07T09:12:21.680Z,9.30
2022-12-07T09:14:48.552Z,9.40
2022-12-07T09:17:15.420Z,9.40
2022-12-07T09:19:43.537Z,9.40
2022-12-07T09:22:10.726Z,9.50
2022-12-07T09:24:37.623Z,9.60
2022-12-07T09:27:04.539Z,9.70
2022-12-07T09:29:31.425Z,9.80
2022-12-07T09:31:58.429Z,9.80
2022-12-07T09:34:25.783Z,9.90
2022-12-07T09:36:52.702Z,10.00
2022-12-07T09:39:19.896Z,10.10
2022-12-07T09:41:47.157Z,10.20
2022-12-07T09:44:25.505Z,10.30
2022-12-07T09:46:54.191Z,10.50
2022-12-07T09:49:25.036Z,10.60
2022-12-07T09:52:10.250Z,10.70
2022-12-07T09:54:41.003Z,10.90
2022-12-07T09:57:09.917Z,11.00
2022-12-07T09:59:36.955Z,11.00
2022-12-07T10:02:43.926Z,11.10
2022-12-07T10:05:24.644Z,11.20
2022-12-07T10:07:54.788Z,11.30
2022-12-07T10:10:37.973Z,11.20
2022-12-07T10:13:06.930Z,11.20
2022-12-07T10:16:06.586Z,11.20
2022-12-07T10:18:42.428Z,11.20
2022-12-07T10:21:10.019Z,11.10
2022-12-07T10:23:39.422Z,11.10
2022-12-07T10:26:37.052Z,11.00
2022-12-07T10:29:15.110Z,10.90
2022-12-07T10:31:43.263Z,10.90
2022-12-07T10:34:30.288Z,10.90
2022-12-07T10:37:18.488Z,10.80
2022-12-07T10:39:56.855Z,10.80
2022-12-07T10:42:23.687Z,10.80
2022-12-07T10:45:08.722Z,10.80
2022-12-07T10:47:49.821Z,10.90
2022-12-07T10:50:20.227Z,10.80
2022-12-07T10:52:59.160Z,10.80
2022-12-07T10:55:47.690Z,10.80
2022-12-07T10:58:14.508Z,10.90
2022-12-07T11:00:51.323Z,11.00
2022-12-07T11:03:27.419Z,11.00
2022-12-07T11:06:37.882Z,11.10
2022-12-07T11:09:44.946Z,11.10
2022-12-07T11:12:33.162Z,11.10
2022-12-07T11:15:07.445Z,11.10
2022-12-07T11:17:46.341Z,11.00
2022-12-07T11:20:42.748Z,10.90
2022-12-07T11:23:21.676Z,10.80
2022-12-07T11:26:01.448Z,10.70
2022-12-07T11:28:51.297Z,10.60
2022-12-07T11:31:38.345Z,10.60
2022-12-07T11:34:13.448Z,10.60
2022-12-07T11:36:45.472Z,10.60
2022-12-07T11:39:40.498Z,10.70
2022-12-07T11:42:15.686Z,10.70
2022-12-07T11:44:52.887Z,10.70
2022-12-07T11:47:37.872Z,10.80
2022-12-07T11:50:36.827Z,10.80
2022-12-07T11:53:09.865Z,10.90
2022-12-07T11:55:39.901Z,10.90
2022-12-07T11:58:28.684Z,11.00
2022-12-07T12:01:08.886Z,11.00
2022-12-07T12:03:41.262Z,11.10
2022-12-07T12:06:08.223Z,11.10
2022-12-07T12:14:56.168Z,11.30
2022-12-07T12:17:44.923Z,11.30
2022-12-07T12:20:40.327Z,11.30
2022-12-07T12:23:19.336Z,11.30
2022-12-07T12:25:56.679Z,11.20
2022-12-07T12:29:00.108Z,11.30
2022-12-07T12:31:40.906Z,11.20
2022-12-07T12:34:31.374Z,11.30
2022-12-07T12:36:58.514Z,11.30
2022-12-07T12:39:26.272Z,11.30
2022-12-07T12:41:57.780Z,11.30
2022-12-07T12:44:30.364Z,11.20
2022-12-07T12:47:05.763Z,11.20
2022-12-07T12:49:34.522Z,11.20
2022-12-07T12:52:15.035Z,11.20
2022-12-07T12:55:10.024Z,11.20
2022-12-07T12:57:38.205Z,11.30
2022-12-07T13:00:23.710Z,11.30
2022-12-07T13:02:59.967Z,11.20
2022-12-07T13:05:32.535Z,11.20
2022-12-07T13:08:02.702Z,11.20
2022-12-07T13:10:32.897Z,11.20
2022-12-07T13:13:25.688Z,11.30
2022-12-07T13:16:07.809Z,11.30
2022-12-07T13:18:34.671Z,11.20
2022-12-07T13:21:08.534Z,11.20
2022-12-07T13:23:45.756Z,11.20
2022-12-07T13:26:33.378Z,11.10
2022-12-07T13:29:18.614Z,11.10
2022-12-07T13:31:50.446Z,11.10
2022-12-07T13:34:43.068Z,11.00
2022-12-07T13:37:33.684Z,11.00
2022-12-07T13:40:22.263Z,10.80
2022-12-07T13:42:49.195Z,10.80
2022-12-07T13:45:49.085Z,10.70
2022-12-07T13:48:35.867Z,10.70
2022-12-07T13:51:05.043Z,10.70
2022-12-07T13:53:32.012Z,10.70
2022-12-07T13:56:00.118Z,10.70
2022-12-07T13:58:30.712Z,10.70
2022-12-07T14:00:58.578Z,10.70
2022-12-07T14:03:34.794Z,10.60
2022-12-07T14:06:18.768Z,10.60
2022-12-07T14:08:46.577Z,10.50
2022-12-07T14:11:20.041Z,10.50
2022-12-07T14:14:00.356Z,10.40
2022-12-07T14:16:33.381Z,10.40
2022-12-07T14:19:02.841Z,10.30
2022-12-07T14:21:31.954Z,10.30
2022-12-07T14:24:17.192Z,10.20
2022-12-07T14:26:45.706Z,10.30
2022-12-07T14:29:28.232Z,10.30
2022-12-07T14:31:56.240Z,10.30
2022-12-07T14:34:23.899Z,10.30
2022-12-07T14:36:51.199Z,10.30
2022-12-07T14:39:18.279Z,10.20
2022-12-07T14:41:51.422Z,10.20
2022-12-07T14:44:26.080Z,10.20
2022-12-07T14:49:42.218Z,10.10
2022-12-07T14:55:16.960Z,10.00
2022-12-07T14:57:43.908Z,10.00
2022-12-07T15:00:15.462Z,9.90
2022-12-07T15:02:42.307Z,9.90
2022-12-07T15:05:15.748Z,9.90
2022-12-07T15:07:43.899Z,9.90
2022-12-07T15:10:32.670Z,9.90
2022-12-07T15:13:20.856Z,9.90
2022-12-07T15:15:48.912Z,9.90
2022-12-07T15:18:16.281Z,9.90
2022-12-07T15:20:43.240Z,9.90
2022-12-07T15:23:12.046Z,9.90
2022-12-07T15:25:42.791Z,9.80
2022-12-07T15:28:09.732Z,9.80
2022-12-07T15:30:39.004Z,9.80
2022-12-07T15:33:05.974Z,9.70
2022-12-07T15:35:32.944Z,9.70
2022-12-07T15:37:59.856Z,9.70
2022-12-07T15:40:26.785Z,9.70
2022-12-07T15:42:53.678Z,9.70
2022-12-07T15:45:20.591Z,9.60
2022-12-07T15:48:26.245Z,9.60
2022-12-07T15:50:34.394Z,9.60
2022-12-07T15:53:01.277Z,9.60
2022-12-07T15:55:28.105Z,9.60
2022-12-07T15:57:54.983Z,9.60
2022-12-07T16:00:21.948Z,9.60
2022-12-07T16:02:48.924Z,9.50
2022-12-07T16:05:15.841Z,9.50
2022-12-07T16:07:43.104Z,9.40
2022-12-07T16:10:10.541Z,9.40
2022-12-07T16:12:37.432Z,9.40
2022-12-07T16:15:04.828Z,9.40
2022-12-07T16:17:31.957Z,9.40
2022-12-07T16:19:59.158Z,9.30
2022-12-07T16:22:26.043Z,9.30
2022-12-07T16:24:52.907Z,9.30
2022-12-07T16:27:19.888Z,9.30
2022-12-07T16:29:46.772Z,9.30
2022-12-07T16:32:13.673Z,9.30
2022-12-07T16:34:40.924Z,9.30
2022-12-07T16:37:07.900Z,9.40
2022-12-07T16:39:35.310Z,9.40
2022-12-07T16:42:02.344Z,9.50
2022-12-07T16:44:29.338Z,9.50
2022-12-07T16:46:59.631Z,9.50
2022-12-07T16:49:26.697Z,9.40
2022-12-07T16:52:14.948Z,9.50
2022-12-07T16:54:40.826Z,9.50
2022-12-07T16:57:07.746Z,9.50
2022-12-07T16:59:34.746Z,9.50
2022-12-07T17:02:01.709Z,9.50
2022-12-07T17:04:29.039Z,9.50
2022-12-07T17:06:56.103Z,9.50
2022-12-07T17:09:23.035Z,9.50
2022-12-07T17:11:49.898Z,9.40
2022-12-07T17:14:35.158Z,9.40
2022-12-07T17:17:02.382Z,9.30
2022-12-07T17:19:29.317Z,9.30
2022-12-07T17:21:56.342Z,9.30
2022-12-07T17:24:23.507Z,9.30
2022-12-07T17:26:50.500Z,9.20
2022-12-07T17:29:19.492Z,9.20
2022-12-07T17:31:51.307Z,9.20
2022-12-07T17:34:19.298Z,9.20
2022-12-07T17:36:46.620Z,9.20
2022-12-07T17:39:17.512Z,9.20
2022-12-07T17:42:03.111Z,9.20
2022-12-07T17:44:30.150Z,9.20
2022-12-07T17:47:02.542Z,9.20
2022-12-07T17:49:29.682Z,9.20
2022-12-07T17:52:14.866Z,9.20
2022-12-07T17:54:41.779Z,9.20
2022-12-07T17:57:09.947Z,9.30
2022-12-07T17:59:36.936Z,9.20
2022-12-07T18:02:04.123Z,9.30
2022-12-07T18:04:31.227Z,9.30
2022-12-07T18:06:58.532Z,9.30
2022-12-07T18:09:25.534Z,9.30
2022-12-07T18:11:52.458Z,9.30
2022-12-07T18:14:19.320Z,9.40
2022-12-07T18:16:46.554Z,9.40
2022-12-07T18:19:14.752Z,9.40
2022-12-07T18:21:42.502Z,9.40
2022-12-07T18:24:11.909Z,9.40
2022-12-07T18:26:39.484Z,9.40
2022-12-07T18:29:07.404Z,9.40
2022-12-07T18:31:36.090Z,9.50
2022-12-07T18:34:05.291Z,9.50
2022-12-07T18:36:32.336Z,9.50
2022-12-07T18:38:59.362Z,9.50
2022-12-07T18:41:26.228Z,9.50
2022-12-07T18:43:53.072Z,9.60
2022-12-07T18:46:21.668Z,9.60
2022-12-07T18:48:50.382Z,9.60
2022-12-07T18:51:19.045Z,9.70
2022-12-07T18:53:46.567Z,9.70
2022-12-07T18:56:21.935Z,9.70
2022-12-07T18:59:15.776Z,9.80
2022-12-07T19:01:45.223Z,9.80
2022-12-07T19:04:12.229Z,9.80
2022-12-07T19:06:42.176Z,9.70
2022-12-07T19:09:09.210Z,9.60
2022-12-07T19:11:51.388Z,9.60
2022-12-07T19:14:33.981Z,9.50
2022-12-07T19:17:04.196Z,9.60
2022-12-07T19:19:38.611Z,9.60
2022-12-07T19:22:06.822Z,9.60
2022-12-07T19:24:34.214Z,9.60
2022-12-07T19:27:01.700Z,9.60
2022-12-07T19:29:31.299Z,9.60
2022-12-07T19:32:03.301Z,9.50
2022-12-07T19:34:30.351Z,9.50
2022-12-07T19:36:58.591Z,9.50
2022-12-07T19:39:25.539Z,9.60
2022-12-07T19:41:52.433Z,9.60
2022-12-07T19:44:27.821Z,9.60
2022-12-07T19:47:04.003Z,9.60
2022-12-07T19:49:34.384Z,9.70
2022-12-07T19:52:04.396Z,9.60
2022-12-07T19:54:32.282Z,9.70
2022-12-07T19:56:59.265Z,9.70
2022-12-07T19:59:29.163Z,9.70
2022-12-07T20:01:56.279Z,9.70
2022-12-07T20:04:26.112Z,9.70
2022-12-07T20:06:56.076Z,9.70
2022-12-07T20:09:23.669Z,9.70
2022-12-07T20:12:09.898Z,9.60
2022-12-07T20:14:37.983Z,9.60
2022-12-07T20:17:05.199Z,9.50
2022-12-07T20:19:32.177Z,9.50
2022-12-07T20:21:59.019Z,9.40
2022-12-07T20:24:26.576Z,9.40
2022-12-07T20:26:54.265Z,9.30
2022-12-07T20:29:24.013Z,9.20
2022-12-07T20:31:52.770Z,9.20
2022-12-07T20:34:20.414Z,9.10
2022-12-07T20:36:47.403Z,9.10
2022-12-07T20:39:14.721Z,9.10
2022-12-07T20:42:00.205Z,9.00
2022-12-07T20:44:27.500Z,9.00
2022-12-07T20:46:54.678Z,9.00
2022-12-07T20:49:21.991Z,9.00
2022-12-07T20:51:48.900Z,9.00
2022-12-07T20:54:16.943Z,9.00
2022-12-07T20:56:43.856Z,9.00
2022-12-07T20:59:14.368Z,9.00
2022-12-07T21:01:42.255Z,9.00
2022-12-07T21:04:10.833Z,9.00
2022-12-07T21:06:37.784Z,8.90
2022-12-07T21:09:04.716Z,8.90
2022-12-07T21:11:32.569Z,8.90
2022-12-07T21:13:59.650Z,8.90
2022-12-07T21:16:29.642Z,8.90
2022-12-07T21:18:58.864Z,8.90
2022-12-07T21:21:26.015Z,8.90
2022-12-07T21:24:00.000Z,8.90
2022-12-07T21:26:29.035Z,8.90
2022-12-07T21:28:57.162Z,8.90
2022-12-07T21:31:27.226Z,8.80
2022-12-07T21:33:54.380Z,8.80
2022-12-07T21:36:23.976Z,8.80
2022-12-07T21:38:51.373Z,8.80
2022-12-07T21:41:27.146Z,8.80
2022-12-07T21:43:54.408Z,8.80
2022-12-07T21:46:28.105Z,8.80
2022-12-07T21:49:01.334Z,8.70
2022-12-07T21:51:29.806Z,8.70
2022-12-07T21:53:58.545Z,8.70
2022-12-07T21:56:28.264Z,8.60
2022-12-07T21:58:59.431Z,8.60
2022-12-07T22:01:28.460Z,8.50
2022-12-07T22:03:55.680Z,8.50
2022-12-07T22:06:26.446Z,8.50
2022-12-07T22:08:54.259Z,8.50
2022-12-07T22:11:21.577Z,8.50
2022-12-07T22:14:10.552Z,8.50
2022-12-07T22:16:39.147Z,8.40
2022-12-07T22:19:07.705Z,8.40
2022-12-07T22:21:35.129Z,8.40
2022-12-07T22:24:03.005Z,8.40
2022-12-07T22:26:30.215Z,8.30
2022-12-07T22:28:57.231Z,8.30
2022-12-07T22:31:24.952Z,8.40
2022-12-07T22:33:52.287Z,8.40
2022-12-07T22:36:19.351Z,8.40
2022-12-07T22:38:47.007Z,8.40
2022-12-07T22:41:23.833Z,8.40
2022-12-07T22:43:50.779Z,8.40
2022-12-07T22:46:18.041Z,8.40
2022-12-07T22:48:45.140Z,8.40
2022-12-07T22:51:32.802Z,8.40
2022-12-07T22:54:01.206Z,8.40
2022-12-07T22:56:29.654Z,8.50
2022-12-07T22:58:56.862Z,8.50
2022-12-07T23:01:24.557Z,8.50
2022-12-07T23:03:51.970Z,8.50
2022-12-07T23:06:22.914Z,8.60
2022-12-07T23:08:50.104Z,8.60
2022-12-07T23:11:38.854Z,8.60
2022-12-07T23:14:13.483Z,8.60
2022-12-07T23:16:41.039Z,8.60
2022-12-07T23:19:08.104Z,8.60
2022-12-07T23:21:35.397Z,8.60
2022-12-07T23:24:02.618Z,8.60
2022-12-07T23:26:29.664Z,8.60
2022-12-07T23:28:58.307Z,8.60
2022-12-07T23:31:25.850Z,8.60
2022-12-07T23:33:52.744Z,8.60
2022-12-07T23:36:25.765Z,8.60
2022-12-07T23:38:54.183Z,8.60
2022-12-07T23:41:23.691Z,8.60
2022-12-07T23:43:51.183Z,8.60
2022-12-07T23:46:20.395Z,8.60
2022-12-07T23:48:49.297Z,8.60
2022-12-07T23:51:16.873Z,8.60
2022-12-07T23:53:46.754Z,8.60
2022-12-07T23:56:16.054Z,8.50
2022-12-07T23:58:43.390Z,8.50
